sensor_id;sensor_type;location;lat;lon;timestamp;pressure;altitude;pressure_sealevel;temperature;humidity
22031;BME280;11179;52.106;21.024;2022-07-30T00:01:03;100671.63;;;18.24;46.36
22031;BME280;11179;52.106;21.024;2022-07-30T00:03:28;100671.94;;;18.23;46.55
22031;BME280;11179;52.106;21.024;2022-07-30T00:05:55;100669.66;;;18.25;46.57
22031;BME280;11179;52.106;21.024;2022-07-30T00:08:22;100666.69;;;18.21;46.86
22031;BME280;11179;52.106;21.024;2022-07-30T00:10:48;100656.69;;;18.20;46.65
22031;BME280;11179;52.106;21.024;2022-07-30T00:13:13;100648.66;;;18.19;46.64
22031;BME280;11179;52.106;21.024;2022-07-30T00:15:38;100653.09;;;18.20;46.71
22031;BME280;11179;52.106;21.024;2022-07-30T00:18:04;100665.09;;;18.15;46.81
22031;BME280;11179;52.106;21.024;2022-07-30T00:20:29;100660.06;;;18.17;46.84
22031;BME280;11179;52.106;21.024;2022-07-30T00:22:55;100657.59;;;18.16;46.89
22031;BME280;11179;52.106;21.024;2022-07-30T00:25:21;100655.94;;;18.15;46.83
22031;BME280;11179;52.106;21.024;2022-07-30T00:27:46;100660.38;;;18.16;46.83
22031;BME280;11179;52.106;21.024;2022-07-30T00:30:11;100644.22;;;18.18;46.94
22031;BME280;11179;52.106;21.024;2022-07-30T00:32:37;100638.38;;;18.19;46.86
22031;BME280;11179;52.106;21.024;2022-07-30T00:35:03;100636.47;;;18.15;46.89
22031;BME280;11179;52.106;21.024;2022-07-30T00:37:28;100639.56;;;18.13;46.96
22031;BME280;11179;52.106;21.024;2022-07-30T00:39:54;100642.44;;;18.08;47.11
22031;BME280;11179;52.106;21.024;2022-07-30T00:42:19;100645.28;;;18.03;47.24
22031;BME280;11179;52.106;21.024;2022-07-30T00:44:51;100633.09;;;17.99;47.45
22031;BME280;11179;52.106;21.024;2022-07-30T00:47:17;100637.34;;;17.97;47.45
22031;BME280;11179;52.106;21.024;2022-07-30T00:49:43;100630.63;;;17.98;47.48
22031;BME280;11179;52.106;21.024;2022-07-30T00:52:08;100625.91;;;17.98;47.67
22031;BME280;11179;52.106;21.024;2022-07-30T00:54:34;100626.28;;;17.91;48.05
22031;BME280;11179;52.106;21.024;2022-07-30T00:56:59;100628.53;;;17.89;48.21
22031;BME280;11179;52.106;21.024;2022-07-30T00:59:24;100620.28;;;17.84;48.58
22031;BME280;11179;52.106;21.024;2022-07-30T01:01:52;100614.22;;;17.82;48.58
22031;BME280;11179;52.106;21.024;2022-07-30T01:04:17;100612.63;;;17.76;48.75
22031;BME280;11179;52.106;21.024;2022-07-30T01:06:43;100612.09;;;17.74;48.98
22031;BME280;11179;52.106;21.024;2022-07-30T01:09:08;100614.06;;;17.74;49.11
22031;BME280;11179;52.106;21.024;2022-07-30T01:11:39;100614.06;;;17.74;49.21
22031;BME280;11179;52.106;21.024;2022-07-30T01:14:06;100599.88;;;17.75;48.99
22031;BME280;11179;52.106;21.024;2022-07-30T01:16:33;100606.84;;;17.73;49.16
22031;BME280;11179;52.106;21.024;2022-07-30T01:19:01;100595.66;;;17.59;49.42
22031;BME280;11179;52.106;21.024;2022-07-30T01:21:52;100592.44;;;17.52;49.78
22031;BME280;11179;52.106;21.024;2022-07-30T01:24:26;100587.41;;;17.54;49.62
22031;BME280;11179;52.106;21.024;2022-07-30T01:26:54;100585.19;;;17.56;49.39
22031;BME280;11179;52.106;21.024;2022-07-30T01:29:21;100587.03;;;17.61;49.41
22031;BME280;11179;52.106;21.024;2022-07-30T01:31:48;100595.31;;;17.66;49.51
22031;BME280;11179;52.106;21.024;2022-07-30T01:34:15;100598.31;;;17.69;49.24
22031;BME280;11179;52.106;21.024;2022-07-30T01:36:43;100602.13;;;17.73;49.40
22031;BME280;11179;52.106;21.024;2022-07-30T01:39:10;100600.75;;;17.71;49.42
22031;BME280;11179;52.106;21.024;2022-07-30T01:41:37;100601.59;;;17.71;49.65
22031;BME280;11179;52.106;21.024;2022-07-30T01:44:04;100597.78;;;17.67;49.98
22031;BME280;11179;52.106;21.024;2022-07-30T01:46:31;100592.81;;;17.64;50.37
22031;BME280;11179;52.106;21.024;2022-07-30T01:48:58;100583.72;;;17.58;50.33
22031;BME280;11179;52.106;21.024;2022-07-30T01:51:26;100586.59;;;17.53;50.64
22031;BME280;11179;52.106;21.024;2022-07-30T01:53:52;100587.75;;;17.47;50.96
22031;BME280;11179;52.106;21.024;2022-07-30T01:56:22;100583.31;;;17.46;51.04
22031;BME280;11179;52.106;21.024;2022-07-30T01:58:49;100585.25;;;17.46;51.22
22031;BME280;11179;52.106;21.024;2022-07-30T02:01:16;100582.19;;;17.47;50.92
22031;BME280;11179;52.106;21.024;2022-07-30T02:03:42;100578.84;;;17.50;50.99
22031;BME280;11179;52.106;21.024;2022-07-30T02:06:13;100580.75;;;17.55;50.95
22031;BME280;11179;52.106;21.024;2022-07-30T02:11:15;100573.34;;;17.45;51.31
22031;BME280;11179;52.106;21.024;2022-07-30T02:14:01;100563.75;;;17.38;51.45
22031;BME280;11179;52.106;21.024;2022-07-30T02:16:30;100550.41;;;17.40;51.49
22031;BME280;11179;52.106;21.024;2022-07-30T02:19:15;100554.81;;;17.41;51.52
22031;BME280;11179;52.106;21.024;2022-07-30T02:21:47;100564.34;;;17.35;51.74
22031;BME280;11179;52.106;21.024;2022-07-30T02:24:15;100563.50;;;17.34;51.50
22031;BME280;11179;52.106;21.024;2022-07-30T02:26:44;100552.94;;;17.36;51.38
22031;BME280;11179;52.106;21.024;2022-07-30T02:29:13;100547.91;;;17.38;51.56
22031;BME280;11179;52.106;21.024;2022-07-30T02:31:40;100539.59;;;17.38;51.63
22031;BME280;11179;52.106;21.024;2022-07-30T02:34:07;100540.72;;;17.37;51.78
22031;BME280;11179;52.106;21.024;2022-07-30T02:36:34;100535.22;;;17.32;51.96
22031;BME280;11179;52.106;21.024;2022-07-30T02:39:02;100529.22;;;17.25;51.98
22031;BME280;11179;52.106;21.024;2022-07-30T02:41:30;100519.78;;;17.26;51.90
22031;BME280;11179;52.106;21.024;2022-07-30T02:43:56;100515.06;;;17.27;51.95
22031;BME280;11179;52.106;21.024;2022-07-30T02:46:23;100507.84;;;17.26;52.41
22031;BME280;11179;52.106;21.024;2022-07-30T02:48:50;100513.16;;;17.22;52.31
22031;BME280;11179;52.106;21.024;2022-07-30T02:51:19;100510.16;;;17.18;52.43
22031;BME280;11179;52.106;21.024;2022-07-30T02:53:47;100507.72;;;17.17;52.31
22031;BME280;11179;52.106;21.024;2022-07-30T02:56:14;100511.28;;;17.17;52.43
22031;BME280;11179;52.106;21.024;2022-07-30T02:58:43;100503.88;;;17.13;52.54
22031;BME280;11179;52.106;21.024;2022-07-30T03:01:10;100513.16;;;17.22;52.43
22031;BME280;11179;52.106;21.024;2022-07-30T03:03:38;100512.72;;;17.15;52.56
22031;BME280;11179;52.106;21.024;2022-07-30T03:06:05;100509.66;;;17.16;52.55
22031;BME280;11179;52.106;21.024;2022-07-30T03:08:32;100505.28;;;17.10;52.97
22031;BME280;11179;52.106;21.024;2022-07-30T03:10:58;100506.72;;;17.08;52.90
22031;BME280;11179;52.106;21.024;2022-07-30T03:13:24;100504.03;;;17.03;53.12
22031;BME280;11179;52.106;21.024;2022-07-30T03:15:50;100505.06;;;17.07;53.08
22031;BME280;11179;52.106;21.024;2022-07-30T03:18:18;100495.38;;;17.04;53.18
22031;BME280;11179;52.106;21.024;2022-07-30T03:20:53;100493.81;;;16.98;53.55
22031;BME280;11179;52.106;21.024;2022-07-30T03:23:19;100487.38;;;17.03;53.45
22031;BME280;11179;52.106;21.024;2022-07-30T03:25:56;100489.53;;;17.06;53.47
22031;BME280;11179;52.106;21.024;2022-07-30T03:28:23;100495.38;;;17.04;53.44
22031;BME280;11179;52.106;21.024;2022-07-30T03:30:50;100499.50;;;17.07;53.48
22031;BME280;11179;52.106;21.024;2022-07-30T03:33:18;100498.69;;;17.06;53.71
22031;BME280;11179;52.106;21.024;2022-07-30T03:35:44;100487.81;;;17.10;53.67
22031;BME280;11179;52.106;21.024;2022-07-30T03:38:12;100487.81;;;17.10;53.75
22031;BME280;11179;52.106;21.024;2022-07-30T03:40:40;100491.66;;;17.14;53.87
22031;BME280;11179;52.106;21.024;2022-07-30T03:43:09;100474.09;;;17.18;53.84
22031;BME280;11179;52.106;21.024;2022-07-30T03:45:39;100489.47;;;17.11;54.20
22031;BME280;11179;52.106;21.024;2022-07-30T03:48:07;100497.03;;;17.05;54.20
22031;BME280;11179;52.106;21.024;2022-07-30T03:50:35;100508.66;;;17.07;54.48
22031;BME280;11179;52.106;21.024;2022-07-30T03:53:03;100507.28;;;17.05;54.65
22031;BME280;11179;52.106;21.024;2022-07-30T03:55:29;100515.31;;;17.06;54.59
22031;BME280;11179;52.106;21.024;2022-07-30T03:57:55;100520.13;;;17.01;55.13
22031;BME280;11179;52.106;21.024;2022-07-30T04:00:21;100516.28;;;16.97;55.34
22031;BME280;11179;52.106;21.024;2022-07-30T04:02:46;100518.72;;;17.03;55.15
22031;BME280;11179;52.106;21.024;2022-07-30T04:05:12;100513.38;;;17.07;55.08
22031;BME280;11179;52.106;21.024;2022-07-30T04:07:38;100513.31;;;17.12;55.27
22031;BME280;11179;52.106;21.024;2022-07-30T04:10:05;100513.75;;;17.19;54.97
22031;BME280;11179;52.106;21.024;2022-07-30T04:12:30;100511.75;;;17.25;54.96
22031;BME280;11179;52.106;21.024;2022-07-30T04:14:56;100510.94;;;17.24;55.00
22031;BME280;11179;52.106;21.024;2022-07-30T04:17:32;100508.09;;;17.29;54.98
22031;BME280;11179;52.106;21.024;2022-07-30T04:20:05;100503.56;;;17.33;54.88
22031;BME280;11179;52.106;21.024;2022-07-30T04:22:35;100497.44;;;17.36;54.96
22031;BME280;11179;52.106;21.024;2022-07-30T04:25:03;100506.72;;;17.45;54.76
22031;BME280;11179;52.106;21.024;2022-07-30T04:27:30;100504.13;;;17.54;54.67
22031;BME280;11179;52.106;21.024;2022-07-30T04:29:56;100511.78;;;17.62;54.57
22031;BME280;11179;52.106;21.024;2022-07-30T04:32:22;100505.38;;;17.80;54.36
22031;BME280;11179;52.106;21.024;2022-07-30T04:34:54;100500.53;;;17.86;54.43
22031;BME280;11179;52.106;21.024;2022-07-30T04:37:22;100499.75;;;17.99;54.14
22031;BME280;11179;52.106;21.024;2022-07-30T04:39:48;100491.16;;;18.14;54.11
22031;BME280;11179;52.106;21.024;2022-07-30T04:42:18;100492.13;;;18.23;53.95
22031;BME280;11179;52.106;21.024;2022-07-30T04:44:43;100497.38;;;18.39;53.67
22031;BME280;11179;52.106;21.024;2022-07-30T04:47:08;100500.09;;;18.44;53.55
22031;BME280;11179;52.106;21.024;2022-07-30T04:49:34;100495.25;;;18.36;53.60
22031;BME280;11179;52.106;21.024;2022-07-30T04:52:01;100479.66;;;18.35;53.35
22031;BME280;11179;52.106;21.024;2022-07-30T04:54:32;100491.44;;;18.45;53.45
22031;BME280;11179;52.106;21.024;2022-07-30T04:57:00;100505.88;;;18.47;53.34
22031;BME280;11179;52.106;21.024;2022-07-30T04:59:25;100499.03;;;18.40;53.28
22031;BME280;11179;52.106;21.024;2022-07-30T05:01:52;100508.03;;;18.37;53.51
22031;BME280;11179;52.106;21.024;2022-07-30T05:04:21;100507.00;;;18.46;53.17
22031;BME280;11179;52.106;21.024;2022-07-30T05:06:48;100506.78;;;18.56;53.27
22031;BME280;11179;52.106;21.024;2022-07-30T05:09:14;100505.88;;;18.61;52.95
22031;BME280;11179;52.106;21.024;2022-07-30T05:11:40;100513.09;;;18.62;53.10
22031;BME280;11179;52.106;21.024;2022-07-30T05:14:05;100510.91;;;18.59;53.06
22031;BME280;11179;52.106;21.024;2022-07-30T05:16:31;100510.19;;;18.67;53.14
22031;BME280;11179;52.106;21.024;2022-07-30T05:18:59;100508.53;;;18.66;53.26
22031;BME280;11179;52.106;21.024;2022-07-30T05:21:24;100502.97;;;18.66;53.71
22031;BME280;11179;52.106;21.024;2022-07-30T05:23:50;100503.59;;;18.63;53.59
22031;BME280;11179;52.106;21.024;2022-07-30T05:26:18;100493.19;;;18.55;54.34
22031;BME280;11179;52.106;21.024;2022-07-30T05:28:44;100493.63;;;18.48;54.21
22031;BME280;11179;52.106;21.024;2022-07-30T05:31:09;100486.72;;;18.46;54.61
22031;BME280;11179;52.106;21.024;2022-07-30T05:33:35;100488.97;;;18.44;54.92
22031;BME280;11179;52.106;21.024;2022-07-30T05:36:00;100491.22;;;18.42;55.29
22031;BME280;11179;52.106;21.024;2022-07-30T05:38:26;100481.75;;;18.43;55.51
22031;BME280;11179;52.106;21.024;2022-07-30T05:40:51;100479.06;;;18.38;55.51
22031;BME280;11179;52.106;21.024;2022-07-30T05:43:16;100479.44;;;18.31;56.09
22031;BME280;11179;52.106;21.024;2022-07-30T05:45:41;100476.97;;;18.29;56.39
22031;BME280;11179;52.106;21.024;2022-07-30T05:48:07;100473.88;;;18.31;56.66
22031;BME280;11179;52.106;21.024;2022-07-30T05:50:32;100475.44;;;18.23;57.08
22031;BME280;11179;52.106;21.024;2022-07-30T05:52:58;100476.72;;;18.12;57.56
22031;BME280;11179;52.106;21.024;2022-07-30T05:55:23;100473.03;;;18.03;57.99
22031;BME280;11179;52.106;21.024;2022-07-30T05:57:48;100478.88;;;18.02;58.05
22031;BME280;11179;52.106;21.024;2022-07-30T06:00:14;100490.75;;;18.07;58.09
22031;BME280;11179;52.106;21.024;2022-07-30T06:02:40;100488.06;;;18.16;58.00
22031;BME280;11179;52.106;21.024;2022-07-30T06:05:06;100486.13;;;18.16;58.04
22031;BME280;11179;52.106;21.024;2022-07-30T06:07:31;100490.31;;;18.14;58.21
22031;BME280;11179;52.106;21.024;2022-07-30T06:09:57;100484.78;;;18.27;57.89
22031;BME280;11179;52.106;21.024;2022-07-30T06:12:26;100485.66;;;18.42;58.22
22031;BME280;11179;52.106;21.024;2022-07-30T06:14:51;100477.22;;;18.47;57.97
22031;BME280;11179;52.106;21.024;2022-07-30T06:17:17;100482.38;;;18.67;57.69
22031;BME280;11179;52.106;21.024;2022-07-30T06:19:42;100483.59;;;18.88;57.64
22031;BME280;11179;52.106;21.024;2022-07-30T06:22:08;100490.28;;;19.01;57.05
22031;BME280;11179;52.106;21.024;2022-07-30T06:24:33;100483.88;;;19.28;57.02
22031;BME280;11179;52.106;21.024;2022-07-30T06:26:59;100482.44;;;19.53;56.45
22031;BME280;11179;52.106;21.024;2022-07-30T06:29:24;100466.56;;;19.53;55.69
22031;BME280;11179;52.106;21.024;2022-07-30T06:31:49;100467.69;;;19.52;55.66
22031;BME280;11179;52.106;21.024;2022-07-30T06:34:15;100468.56;;;19.39;55.50
22031;BME280;11179;52.106;21.024;2022-07-30T06:36:40;100462.38;;;19.42;55.44
22031;BME280;11179;52.106;21.024;2022-07-30T06:39:05;100470.91;;;19.46;55.60
22031;BME280;11179;52.106;21.024;2022-07-30T06:41:31;100460.84;;;19.58;55.30
22031;BME280;11179;52.106;21.024;2022-07-30T06:43:56;100457.88;;;19.77;54.85
22031;BME280;11179;52.106;21.024;2022-07-30T06:46:21;100451.88;;;19.84;54.59
22031;BME280;11179;52.106;21.024;2022-07-30T06:48:47;100448.38;;;19.78;54.17
22031;BME280;11179;52.106;21.024;2022-07-30T06:51:12;100440.66;;;19.75;54.12
22031;BME280;11179;52.106;21.024;2022-07-30T06:53:37;100446.69;;;19.68;54.41
22031;BME280;11179;52.106;21.024;2022-07-30T06:56:03;100455.84;;;19.69;54.25
22031;BME280;11179;52.106;21.024;2022-07-30T06:58:28;100457.16;;;19.72;54.20
22031;BME280;11179;52.106;21.024;2022-07-30T07:00:54;100463.13;;;19.79;54.31
22031;BME280;11179;52.106;21.024;2022-07-30T07:03:19;100452.72;;;19.93;53.98
22031;BME280;11179;52.106;21.024;2022-07-30T07:05:45;100453.94;;;20.00;53.65
22031;BME280;11179;52.106;21.024;2022-07-30T07:08:10;100437.84;;;20.28;53.36
22031;BME280;11179;52.106;21.024;2022-07-30T07:10:36;100426.91;;;20.40;52.88
22031;BME280;11179;52.106;21.024;2022-07-30T07:13:01;100425.81;;;20.50;52.56
22031;BME280;11179;52.106;21.024;2022-07-30T07:15:26;100429.31;;;20.73;52.34
22031;BME280;11179;52.106;21.024;2022-07-30T07:17:52;100438.28;;;21.27;51.54
22031;BME280;11179;52.106;21.024;2022-07-30T07:20:17;100427.91;;;21.36;50.65
22031;BME280;11179;52.106;21.024;2022-07-30T07:22:43;100425.78;;;21.41;50.73
22031;BME280;11179;52.106;21.024;2022-07-30T07:25:08;100423.47;;;21.69;50.60
22031;BME280;11179;52.106;21.024;2022-07-30T07:27:35;100425.59;;;21.81;50.27
22031;BME280;11179;52.106;21.024;2022-07-30T07:30:01;100418.50;;;21.84;49.82
22031;BME280;11179;52.106;21.024;2022-07-30T07:32:26;100424.69;;;22.06;49.56
22031;BME280;11179;52.106;21.024;2022-07-30T07:34:52;100416.31;;;21.98;49.35
22031;BME280;11179;52.106;21.024;2022-07-30T07:37:17;100418.28;;;22.06;50.28
22031;BME280;11179;52.106;21.024;2022-07-30T07:39:42;100413.94;;;22.26;49.55
22031;BME280;11179;52.106;21.024;2022-07-30T07:42:08;100420.19;;;22.31;49.28
22031;BME280;11179;52.106;21.024;2022-07-30T07:44:33;100422.84;;;22.10;49.49
22031;BME280;11179;52.106;21.024;2022-07-30T07:46:58;100423.84;;;22.14;49.57
22031;BME280;11179;52.106;21.024;2022-07-30T07:49:24;100407.59;;;22.08;49.57
22031;BME280;11179;52.106;21.024;2022-07-30T07:51:49;100409.41;;;22.04;50.53
22031;BME280;11179;52.106;21.024;2022-07-30T07:54:15;100412.81;;;22.18;49.93
22031;BME280;11179;52.106;21.024;2022-07-30T07:56:40;100414.22;;;22.41;49.38
22031;BME280;11179;52.106;21.024;2022-07-30T07:59:06;100414.03;;;22.46;49.64
22031;BME280;11179;52.106;21.024;2022-07-30T08:01:31;100408.03;;;22.57;49.59
22031;BME280;11179;52.106;21.024;2022-07-30T08:03:56;100412.97;;;22.60;49.48
22031;BME280;11179;52.106;21.024;2022-07-30T08:06:22;100409.84;;;22.82;49.03
22031;BME280;11179;52.106;21.024;2022-07-30T08:08:47;100414.31;;;22.83;48.85
22031;BME280;11179;52.106;21.024;2022-07-30T08:11:13;100412.66;;;22.82;48.64
22031;BME280;11179;52.106;21.024;2022-07-30T08:13:38;100401.44;;;22.61;49.24
22031;BME280;11179;52.106;21.024;2022-07-30T08:16:04;100406.13;;;22.48;49.43
22031;BME280;11179;52.106;21.024;2022-07-30T08:18:29;100392.22;;;22.31;49.76
22031;BME280;11179;52.106;21.024;2022-07-30T08:20:54;100392.25;;;22.14;50.27
22031;BME280;11179;52.106;21.024;2022-07-30T08:23:20;100385.56;;;22.06;50.17
22031;BME280;11179;52.106;21.024;2022-07-30T08:25:47;100382.94;;;22.01;50.38
22031;BME280;11179;52.106;21.024;2022-07-30T08:28:13;100379.16;;;22.06;50.33
22031;BME280;11179;52.106;21.024;2022-07-30T08:30:38;100391.00;;;22.03;50.55
22031;BME280;11179;52.106;21.024;2022-07-30T08:33:03;100385.59;;;21.89;50.51
22031;BME280;11179;52.106;21.024;2022-07-30T08:35:29;100384.91;;;22.01;50.49
22031;BME280;11179;52.106;21.024;2022-07-30T08:37:54;100388.03;;;22.08;50.23
22031;BME280;11179;52.106;21.024;2022-07-30T08:40:19;100390.31;;;22.06;50.62
22031;BME280;11179;52.106;21.024;2022-07-30T08:42:45;100381.28;;;22.00;50.48
22031;BME280;11179;52.106;21.024;2022-07-30T08:45:12;100381.00;;;21.93;50.30
22031;BME280;11179;52.106;21.024;2022-07-30T08:47:40;100382.47;;;21.91;50.98
22031;BME280;11179;52.106;21.024;2022-07-30T08:50:06;100383.34;;;21.83;50.86
22031;BME280;11179;52.106;21.024;2022-07-30T08:52:35;100380.66;;;21.95;51.12
22031;BME280;11179;52.106;21.024;2022-07-30T08:55:01;100388.03;;;22.08;50.73
22031;BME280;11179;52.106;21.024;2022-07-30T08:57:30;100391.16;;;22.06;50.25
22031;BME280;11179;52.106;21.024;2022-07-30T08:59:57;100378.31;;;22.05;50.43
22031;BME280;11179;52.106;21.024;2022-07-30T09:02:23;100394.94;;;22.02;49.89
22031;BME280;11179;52.106;21.024;2022-07-30T09:04:48;100397.94;;;21.97;50.19
22031;BME280;11179;52.106;21.024;2022-07-30T09:07:13;100394.13;;;22.01;50.37
22031;BME280;11179;52.106;21.024;2022-07-30T09:09:39;100383.59;;;22.07;50.10
22031;BME280;11179;52.106;21.024;2022-07-30T09:15:09;100390.41;;;22.27;50.03
22031;BME280;11179;52.106;21.024;2022-07-30T09:20:10;100378.34;;;22.64;49.72
22031;BME280;11179;52.106;21.024;2022-07-30T09:22:50;100374.28;;;22.62;49.42
22031;BME280;11179;52.106;21.024;2022-07-30T09:25:32;100370.69;;;22.52;49.66
22031;BME280;11179;52.106;21.024;2022-07-30T09:27:58;100382.91;;;22.48;49.80
22031;BME280;11179;52.106;21.024;2022-07-30T09:30:23;100389.03;;;22.41;49.50
22031;BME280;11179;52.106;21.024;2022-07-30T09:32:53;100387.59;;;22.35;49.50
22031;BME280;11179;52.106;21.024;2022-07-30T09:35:19;100377.59;;;22.26;49.85
22031;BME280;11179;52.106;21.024;2022-07-30T09:37:45;100392.09;;;22.10;50.15
22031;BME280;11179;52.106;21.024;2022-07-30T09:40:16;100389.34;;;22.02;50.27
22031;BME280;11179;52.106;21.024;2022-07-30T09:42:42;100389.50;;;22.05;50.25
22031;BME280;11179;52.106;21.024;2022-07-30T09:45:09;100392.47;;;22.00;50.32
22031;BME280;11179;52.106;21.024;2022-07-30T09:47:37;100393.78;;;22.03;50.68
22031;BME280;11179;52.106;21.024;2022-07-30T09:50:08;100391.66;;;22.00;50.91
22031;BME280;11179;52.106;21.024;2022-07-30T09:52:36;100387.69;;;22.01;50.67
22031;BME280;11179;52.106;21.024;2022-07-30T09:55:02;100394.50;;;21.91;51.10
22031;BME280;11179;52.106;21.024;2022-07-30T09:57:28;100387.75;;;21.92;51.16
22031;BME280;11179;52.106;21.024;2022-07-30T09:59:57;100397.72;;;22.02;51.68
22031;BME280;11179;52.106;21.024;2022-07-30T10:02:31;100395.09;;;22.05;51.80
22031;BME280;11179;52.106;21.024;2022-07-30T10:05:13;100398.56;;;22.02;53.00
22031;BME280;11179;52.106;21.024;2022-07-30T10:07:46;100402.34;;;21.98;53.36
22031;BME280;11179;52.106;21.024;2022-07-30T10:10:13;100402.84;;;22.00;53.45
22031;BME280;11179;52.106;21.024;2022-07-30T10:12:38;100398.22;;;22.04;53.83
22031;BME280;11179;52.106;21.024;2022-07-30T10:15:05;100398.44;;;21.90;54.31
22031;BME280;11179;52.106;21.024;2022-07-30T10:17:31;100402.75;;;21.79;54.01
22031;BME280;11179;52.106;21.024;2022-07-30T10:19:58;100402.59;;;21.67;54.33
22031;BME280;11179;52.106;21.024;2022-07-30T10:22:23;100398.00;;;21.45;55.23
22031;BME280;11179;52.106;21.024;2022-07-30T10:24:49;100401.13;;;21.35;55.22
22031;BME280;11179;52.106;21.024;2022-07-30T10:27:15;100400.13;;;21.31;55.86
22031;BME280;11179;52.106;21.024;2022-07-30T10:29:41;100403.75;;;21.23;56.12
22031;BME280;11179;52.106;21.024;2022-07-30T10:32:06;100406.25;;;21.16;56.63
22031;BME280;11179;52.106;21.024;2022-07-30T10:34:32;100411.00;;;21.24;56.88
22031;BME280;11179;52.106;21.024;2022-07-30T10:37:01;100410.50;;;21.39;57.03
22031;BME280;11179;52.106;21.024;2022-07-30T10:39:30;100402.94;;;21.31;57.47
22031;BME280;11179;52.106;21.024;2022-07-30T10:44:54;100417.25;;;21.29;58.04
22031;BME280;11179;52.106;21.024;2022-07-30T10:47:24;100410.97;;;21.32;58.23
22031;BME280;11179;52.106;21.024;2022-07-30T10:52:56;100402.47;;;21.03;58.92
22031;BME280;11179;52.106;21.024;2022-07-30T10:55:24;100407.84;;;20.91;59.99
22031;BME280;11179;52.106;21.024;2022-07-30T10:58:06;100396.31;;;20.75;60.17
22031;BME280;11179;52.106;21.024;2022-07-30T11:03:29;100397.94;;;20.59;60.44
22031;BME280;11179;52.106;21.024;2022-07-30T11:08:40;100395.25;;;20.45;60.44
22031;BME280;11179;52.106;21.024;2022-07-30T11:13:57;100399.78;;;20.24;60.91
22031;BME280;11179;52.106;21.024;2022-07-30T11:19:10;100396.63;;;20.17;61.22
22031;BME280;11179;52.106;21.024;2022-07-30T11:22:22;100390.88;;;20.13;61.56
22031;BME280;11179;52.106;21.024;2022-07-30T11:24:48;100378.75;;;20.09;61.64
22031;BME280;11179;52.106;21.024;2022-07-30T11:27:33;100375.78;;;20.14;62.06
22031;BME280;11179;52.106;21.024;2022-07-30T11:29:59;100378.56;;;20.06;62.07
22031;BME280;11179;52.106;21.024;2022-07-30T11:32:25;100371.75;;;19.98;62.28
22031;BME280;11179;52.106;21.024;2022-07-30T11:34:51;100359.78;;;19.97;62.59
22031;BME280;11179;52.106;21.024;2022-07-30T11:37:17;100361.16;;;20.00;62.46
22031;BME280;11179;52.106;21.024;2022-07-30T11:42:33;100366.72;;;20.00;62.76
22031;BME280;11179;52.106;21.024;2022-07-30T11:47:43;100370.16;;;19.75;63.11
22031;BME280;11179;52.106;21.024;2022-07-30T11:50:26;100369.31;;;19.65;63.62
22031;BME280;11179;52.106;21.024;2022-07-30T11:55:38;100357.59;;;19.86;63.75
22031;BME280;11179;52.106;21.024;2022-07-30T11:58:06;100370.41;;;19.87;63.49
22031;BME280;11179;52.106;21.024;2022-07-30T12:00:42;100358.91;;;19.80;63.90
22031;BME280;11179;52.106;21.024;2022-07-30T12:03:16;100354.75;;;19.68;64.34
22031;BME280;11179;52.106;21.024;2022-07-30T12:05:43;100341.81;;;19.73;64.31
22031;BME280;11179;52.106;21.024;2022-07-30T12:08:10;100346.31;;;19.82;64.17
22031;BME280;11179;52.106;21.024;2022-07-30T12:10:36;100338.78;;;19.83;64.55
22031;BME280;11179;52.106;21.024;2022-07-30T12:15:35;100336.06;;;20.00;64.42
22031;BME280;11179;52.106;21.024;2022-07-30T12:18:01;100321.44;;;19.94;64.30
22031;BME280;11179;52.106;21.024;2022-07-30T12:20:27;100336.69;;;19.97;64.28
22031;BME280;11179;52.106;21.024;2022-07-30T12:22:53;100323.34;;;19.85;64.54
22031;BME280;11179;52.106;21.024;2022-07-30T12:25:18;100324.34;;;19.81;64.66
22031;BME280;11179;52.106;21.024;2022-07-30T12:27:45;100327.28;;;19.84;64.36
22031;BME280;11179;52.106;21.024;2022-07-30T12:30:12;100334.38;;;19.90;64.24
22031;BME280;11179;52.106;21.024;2022-07-30T12:32:38;100334.03;;;19.83;64.46
22031;BME280;11179;52.106;21.024;2022-07-30T12:35:03;100334.97;;;19.79;64.63
22031;BME280;11179;52.106;21.024;2022-07-30T12:37:29;100330.22;;;19.79;64.55
22031;BME280;11179;52.106;21.024;2022-07-30T12:42:30;100319.91;;;19.80;64.67
22031;BME280;11179;52.106;21.024;2022-07-30T12:44:55;100332.94;;;19.70;65.20
22031;BME280;11179;52.106;21.024;2022-07-30T12:49:51;100326.75;;;19.74;65.54
22031;BME280;11179;52.106;21.024;2022-07-30T12:52:24;100327.75;;;19.78;65.38
22031;BME280;11179;52.106;21.024;2022-07-30T12:57:21;100335.50;;;19.89;65.20
22031;BME280;11179;52.106;21.024;2022-07-30T12:59:59;100336.81;;;19.83;65.59
22031;BME280;11179;52.106;21.024;2022-07-30T13:02:30;100339.75;;;19.87;65.37
22031;BME280;11179;52.106;21.024;2022-07-30T13:04:56;100333.66;;;19.85;65.43
22031;BME280;11179;52.106;21.024;2022-07-30T13:07:21;100343.19;;;19.84;65.68
22031;BME280;11179;52.106;21.024;2022-07-30T13:09:46;100332.19;;;19.79;65.54
22031;BME280;11179;52.106;21.024;2022-07-30T13:12:12;100338.94;;;19.86;65.61
22031;BME280;11179;52.106;21.024;2022-07-30T13:14:38;100334.56;;;19.94;65.27
22031;BME280;11179;52.106;21.024;2022-07-30T13:17:03;100327.34;;;19.93;65.63
22031;BME280;11179;52.106;21.024;2022-07-30T13:19:29;100335.25;;;19.99;65.60
22031;BME280;11179;52.106;21.024;2022-07-30T13:21:55;100330.50;;;20.00;65.70
22031;BME280;11179;52.106;21.024;2022-07-30T13:24:20;100322.13;;;20.00;65.45